首页
METAR-TAF:

METAR-TAF

机场 :

庫斯塔奈, 哈萨克斯坦

纬度: 53-12-23N, 经度: 063-33-03E, 海拔: 182米

当前天气观测

该预报发布于49分钟前的23:00 UTC
风速6节,风向
温度 17°C
湿度 55%
气压 1011 hPa
能见度10公里或以上
1500米以下无云,无积雨云

METAR: UAUU 302300Z 10003MPS CAVOK 17/08 Q1011 R15/CLRD70 NOSIG RMK QFE742/0990

时间: 05:49 (23:49 UTC)

预报

该预报发布于49分钟前的23:00 UTC
预报有效从31日的 00点(UTC)到 31日的 09点(UTC)
风速6节,风向
能见度10公里或以上
1500米以下无云,无积雨云

TAF: UAUU 302300Z 3100/3109 09003MPS CAVOK

超过4000个机场的气象观测和天气预报(METAR&TAF报告)。

可查询的气象台以黄色和红色小点在地图上表示。

将鼠标移到小点上方,可查看气象台名称。

然后点击查看天气观测和预报。

如需切换地图:点击带黑十字的绿色按钮放大地图;点击带横线的绿色按钮缩小地图;或者点击绿色箭头查看邻近地区的地图。


METAR-TAF: